createdAt,value
2018-05-13T00:09:26.000Z,40.858
2018-05-13T00:19:27.000Z,40.898
2018-05-13T00:29:27.000Z,40.94
2018-05-13T00:39:27.000Z,41.07
2018-05-13T00:49:27.000Z,41.122
2018-05-13T00:59:27.000Z,41.273
2018-05-13T01:09:27.000Z,41.303
2018-05-13T01:19:27.000Z,41.788
2018-05-13T01:29:27.000Z,42.691
2018-05-13T01:39:27.000Z,42.549
2018-05-13T01:49:30.000Z,42.524
2018-05-13T01:59:27.000Z,42.575
2018-05-13T02:09:27.000Z,42.559
2018-05-13T02:19:27.000Z,42.513
2018-05-13T02:29:27.000Z,42.587
2018-05-13T02:39:27.000Z,42.606
2018-05-13T02:49:27.000Z,42.604
2018-05-13T02:59:29.000Z,42.722
2018-05-13T03:09:27.000Z,42.818
2018-05-13T03:19:27.000Z,42.794
2018-05-13T03:29:27.000Z,42.891
2018-05-13T03:39:27.000Z,43.02
2018-05-13T03:49:27.000Z,43.149
2018-05-13T03:59:27.000Z,43.126
2018-05-13T04:09:27.000Z,43.256
2018-05-13T04:19:27.000Z,43.3
2018-05-13T04:29:27.000Z,43.342
2018-05-13T04:39:27.000Z,43.484
2018-05-13T04:49:27.000Z,43.375
2018-05-13T04:59:27.000Z,43.668
2018-05-13T05:09:27.000Z,43.79
2018-05-13T05:19:27.000Z,44.041
2018-05-13T05:29:27.000Z,44.12
2018-05-13T05:39:27.000Z,44.165
2018-05-13T05:49:27.000Z,44.221
2018-05-13T05:59:27.000Z,44.179
2018-05-13T06:09:27.000Z,44.208
2018-05-13T06:19:27.000Z,43.957
2018-05-13T06:29:27.000Z,44.379
2018-05-13T06:39:27.000Z,44.677
2018-05-13T06:49:27.000Z,44.518
2018-05-13T06:59:28.000Z,44.852
2018-05-13T07:09:27.000Z,44.88
2018-05-13T07:19:27.000Z,44.92
2018-05-13T07:29:27.000Z,44.775
2018-05-13T07:39:27.000Z,44.983
2018-05-13T07:49:27.000Z,45.102
2018-05-13T07:59:27.000Z,44.679
2018-05-13T08:09:27.000Z,44.407
2018-05-13T08:19:27.000Z,44.436
2018-05-13T08:29:27.000Z,44.75
2018-05-13T08:39:28.000Z,44.476
2018-05-13T08:49:28.000Z,44.293
2018-05-13T08:59:28.000Z,43.907
2018-05-13T09:09:28.000Z,43.714
2018-05-13T09:19:28.000Z,43.882
2018-05-13T09:29:28.000Z,43.937
2018-05-13T09:39:28.000Z,43.065
2018-05-13T09:49:28.000Z,42.625
2018-05-13T09:59:28.000Z,42.373
2018-05-13T10:09:28.000Z,41.966
2018-05-13T10:19:28.000Z,42.164
2018-05-13T10:29:28.000Z,41.577
2018-05-13T10:39:28.000Z,41.641
2018-05-13T10:49:28.000Z,41.588
2018-05-13T10:59:28.000Z,41.15
2018-05-13T11:09:28.000Z,41.166
2018-05-13T11:19:28.000Z,40.833
2018-05-13T11:29:28.000Z,40.839
2018-05-13T11:39:28.000Z,40.625
2018-05-13T11:49:28.000Z,40.578
2018-05-13T11:59:28.000Z,40.498
2018-05-13T12:09:28.000Z,41.03
2018-05-13T12:19:28.000Z,41.159
2018-05-13T12:29:28.000Z,41.3
2018-05-13T12:39:28.000Z,41.314
2018-05-13T12:49:28.000Z,41.372
2018-05-13T12:59:28.000Z,41.446
2018-05-13T13:09:28.000Z,42.232
2018-05-13T13:19:28.000Z,42.61
2018-05-13T13:29:29.000Z,54.083
2018-05-13T13:39:28.000Z,53.78
2018-05-13T13:49:28.000Z,52.315
2018-05-13T13:59:28.000Z,49.1
2018-05-13T14:09:28.000Z,47.883
2018-05-13T14:19:28.000Z,47.304
2018-05-13T14:29:28.000Z,47.25
2018-05-13T14:39:32.000Z,47.239
2018-05-13T14:49:28.000Z,46.968
2018-05-13T14:59:28.000Z,46.965
2018-05-13T15:09:28.000Z,46.904
2018-05-13T15:29:28.000Z,46.851
2018-05-13T15:39:28.000Z,46.692
2018-05-13T15:49:28.000Z,46.612
2018-05-13T15:59:28.000Z,46.543
2018-05-13T16:09:28.000Z,46.462
2018-05-13T16:19:28.000Z,46.415
2018-05-13T16:29:28.000Z,46.367
2018-05-13T16:39:28.000Z,46.252
2018-05-13T16:49:29.000Z,46.194
2018-05-13T16:59:30.000Z,46.3
2018-05-13T17:09:29.000Z,46.06
2018-05-13T17:19:29.000Z,46.025
2018-05-13T17:29:29.000Z,45.945
2018-05-13T17:39:29.000Z,46.225
2018-05-13T17:49:29.000Z,46.22
2018-05-13T17:59:29.000Z,46.142
2018-05-13T18:09:29.000Z,46.162
2018-05-13T18:19:29.000Z,46.135
2018-05-13T18:29:29.000Z,46.165
2018-05-13T18:39:29.000Z,46.293
2018-05-13T18:49:29.000Z,46.302
2018-05-13T18:59:29.000Z,46.606
2018-05-13T19:09:29.000Z,46.759
2018-05-13T19:19:29.000Z,47.088
2018-05-13T19:29:29.000Z,47.545
2018-05-13T19:39:30.000Z,47.586
2018-05-13T19:49:29.000Z,48.07
2018-05-13T19:59:29.000Z,47.822
2018-05-13T20:09:29.000Z,47.703
2018-05-13T20:19:29.000Z,47.632
2018-05-13T20:29:29.000Z,47.867
2018-05-13T20:39:29.000Z,47.984
2018-05-13T20:49:29.000Z,47.769
2018-05-13T20:59:29.000Z,47.81
2018-05-13T21:09:29.000Z,47.906
2018-05-13T21:19:29.000Z,47.812
2018-05-13T21:29:29.000Z,47.907
2018-05-13T21:39:29.000Z,47.728
2018-05-13T21:49:29.000Z,47.844
2018-05-13T21:59:29.000Z,47.713
2018-05-13T22:09:29.000Z,47.774
2018-05-13T22:19:29.000Z,47.718
2018-05-13T22:29:29.000Z,47.728
2018-05-13T22:39:29.000Z,47.755
2018-05-13T22:49:29.000Z,47.742
2018-05-13T22:59:29.000Z,47.75
2018-05-13T23:09:29.000Z,47.736
2018-05-13T23:19:29.000Z,47.745
2018-05-13T23:29:29.000Z,47.666
2018-05-13T23:39:29.000Z,47.75
2018-05-13T23:49:29.000Z,47.757
2018-05-13T23:59:29.000Z,47.745
